createdAt,value
2023-05-15T00:00:21.625Z,98.7161
2023-05-15T00:01:37.729Z,98.7460
2023-05-15T00:13:15.214Z,98.9564
2023-05-15T00:14:15.927Z,98.9885
2023-05-15T00:15:17.142Z,99.0025
2023-05-15T00:16:19.922Z,99.0064
2023-05-15T00:17:20.364Z,99.0435
2023-05-15T00:18:20.480Z,99.0502
2023-05-15T00:19:22.698Z,99.0691
2023-05-15T00:37:16.094Z,98.6697
2023-05-15T00:38:18.163Z,98.6660
2023-05-15T00:39:18.304Z,98.6514
2023-05-15T00:42:24.802Z,98.6441
2023-05-15T00:43:25.399Z,98.6463
2023-05-15T01:01:49.427Z,98.1809
2023-05-15T01:02:51.611Z,98.1938
2023-05-15T01:03:52.750Z,98.1817
2023-05-15T01:04:54.021Z,98.0384
2023-05-15T01:05:55.233Z,97.7705
2023-05-15T01:06:55.792Z,97.6956
2023-05-15T01:07:56.968Z,97.4889
2023-05-15T01:08:58.066Z,97.1531
2023-05-15T01:09:59.701Z,97.0681
2023-05-15T01:11:02.279Z,97.0545
2023-05-15T01:12:03.135Z,97.0439
2023-05-15T01:13:04.487Z,97.1708
2023-05-15T01:14:06.707Z,97.5220
2023-05-15T01:15:08.876Z,97.6624
2023-05-15T01:16:10.262Z,97.8067
2023-05-15T01:20:16.386Z,97.7789
2023-05-15T01:29:24.980Z,98.2605
2023-05-15T01:30:25.620Z,98.2963
2023-05-15T01:31:26.187Z,98.1917
2023-05-15T01:32:26.717Z,98.0330
2023-05-15T01:33:27.697Z,97.6281
2023-05-15T01:34:29.483Z,97.3721
2023-05-15T01:35:31.365Z,97.3841
2023-05-15T01:36:31.690Z,97.5361
2023-05-15T01:37:33.368Z,97.6182
2023-05-15T01:38:35.420Z,97.6961
2023-05-15T01:39:37.369Z,97.7797
2023-05-15T01:40:38.432Z,97.7592
2023-05-15T01:41:39.270Z,97.7253
2023-05-15T01:42:39.427Z,97.8454
2023-05-15T01:43:39.603Z,97.8351
2023-05-15T01:45:42.136Z,97.4943
2023-05-15T01:46:45.131Z,97.1869
2023-05-15T01:50:49.840Z,97.1788
2023-05-15T01:51:50.725Z,97.3123
2023-05-15T01:52:51.714Z,97.3494
2023-05-15T01:53:54.307Z,97.2803
2023-05-15T01:54:54.085Z,97.3634
2023-05-15T01:55:56.200Z,97.4003
2023-05-15T01:59:01.461Z,97.5050
2023-05-15T02:00:03.132Z,97.2302
2023-05-15T02:01:05.428Z,97.1861
2023-05-15T02:02:07.011Z,97.3733
2023-05-15T02:03:08.306Z,97.5810
2023-05-15T02:08:14.784Z,98.2060
2023-05-15T02:09:16.518Z,98.3607
2023-05-15T02:10:17.698Z,98.4370
2023-05-15T02:11:18.865Z,98.5262
2023-05-15T02:22:29.446Z,99.1018
2023-05-15T02:23:29.639Z,99.0818
2023-05-15T02:24:30.795Z,99.0782
2023-05-15T02:26:33.163Z,99.1022
2023-05-15T02:27:35.268Z,99.1075
2023-05-15T02:28:35.939Z,99.0951
2023-05-15T02:29:37.337Z,99.0661
2023-05-15T02:30:37.138Z,99.0325
2023-05-15T02:33:41.913Z,99.0204
2023-05-15T02:34:43.849Z,99.0231
2023-05-15T02:36:46.218Z,99.0072
2023-05-15T02:37:46.676Z,98.9947
2023-05-15T02:38:46.641Z,98.9806
2023-05-15T02:50:01.840Z,98.9634
2023-05-15T02:56:07.847Z,99.0527
2023-05-15T02:57:09.727Z,99.0801
2023-05-15T02:58:10.517Z,99.0955
2023-05-15T02:59:11.147Z,99.1069
2023-05-15T03:00:11.767Z,99.1217
2023-05-15T03:01:12.490Z,99.1431
2023-05-15T03:04:17.323Z,99.1848
2023-05-15T03:05:18.622Z,99.2161
2023-05-15T03:07:22.665Z,99.2614
2023-05-15T03:08:25.495Z,99.2906
2023-05-15T03:12:28.762Z,99.3731
2023-05-15T03:20:35.811Z,99.2323
2023-05-15T03:21:36.700Z,99.2386
2023-05-15T03:22:38.431Z,99.2016
2023-05-15T03:35:28.706Z,99.1652
2023-05-15T03:36:30.154Z,99.1585
2023-05-15T03:37:31.242Z,99.1691
2023-05-15T03:38:32.712Z,99.1765
2023-05-15T03:39:32.932Z,99.1654
2023-05-15T03:40:35.445Z,99.1876
2023-05-15T03:41:36.594Z,99.2085
2023-05-15T03:42:38.607Z,99.1995
2023-05-15T03:43:38.402Z,99.1824
2023-05-15T03:47:43.891Z,99.1848
2023-05-15T03:48:43.845Z,99.1785
2023-05-15T03:49:45.714Z,99.1939
2023-05-15T03:50:46.886Z,99.1891
2023-05-15T03:51:48.405Z,99.1761
2023-05-15T03:52:49.547Z,99.1723
2023-05-15T03:53:51.104Z,99.1708
2023-05-15T03:54:52.547Z,99.1538
2023-05-15T03:55:52.921Z,99.1396
2023-05-15T03:56:54.311Z,99.1581
2023-05-15T03:57:56.054Z,99.1516
2023-05-15T03:58:56.904Z,99.1517
2023-05-15T03:59:58.838Z,99.1573
2023-05-15T04:00:59.866Z,99.1685
2023-05-15T04:03:03.521Z,99.1883
2023-05-15T04:11:11.818Z,98.8235
2023-05-15T04:12:12.573Z,98.8710
2023-05-15T04:14:13.844Z,98.9121
2023-05-15T04:15:14.127Z,98.9008
2023-05-15T04:16:15.410Z,98.9000
2023-05-15T04:17:16.424Z,98.9161
2023-05-15T04:18:17.862Z,98.9287
2023-05-15T04:19:18.067Z,98.9128
2023-05-15T04:21:19.480Z,98.8927
2023-05-15T04:39:38.867Z,97.4273
2023-05-15T04:40:40.969Z,97.3859
2023-05-15T04:41:41.572Z,97.3665
2023-05-15T04:43:46.495Z,97.1763
2023-05-15T04:54:56.818Z,96.9508
2023-05-15T04:55:56.965Z,96.9946
2023-05-15T05:02:03.317Z,97.1098
2023-05-15T05:03:03.622Z,97.1148
2023-05-15T05:04:05.682Z,96.9921
2023-05-15T05:05:07.777Z,96.8548
2023-05-15T05:06:07.891Z,96.7611
2023-05-15T05:07:09.504Z,96.7682
2023-05-15T05:08:11.713Z,96.7521
2023-05-15T05:18:22.034Z,96.5547
2023-05-15T05:19:22.267Z,96.4405
2023-05-15T05:20:24.533Z,96.5444
2023-05-15T05:21:24.923Z,96.4077
2023-05-15T05:33:39.666Z,96.2379
2023-05-15T05:34:39.727Z,95.9650
2023-05-15T05:35:40.833Z,95.8972
2023-05-15T05:36:42.739Z,95.9934
2023-05-15T05:37:43.519Z,96.0659
2023-05-15T05:38:45.471Z,96.0304
2023-05-15T05:39:46.238Z,95.7606
2023-05-15T05:40:48.304Z,95.5577
2023-05-15T05:41:50.577Z,95.6371
2023-05-15T05:44:54.515Z,95.6843
2023-05-15T05:45:55.994Z,95.6026
2023-05-15T05:49:02.891Z,94.9684
2023-05-15T05:50:03.986Z,95.1845
2023-05-15T05:51:04.011Z,95.3136
2023-05-15T05:53:06.635Z,95.3303
2023-05-15T05:54:07.198Z,95.4444
2023-05-15T05:55:07.289Z,95.1056
2023-05-15T05:56:07.413Z,95.4091
2023-05-15T05:57:10.267Z,95.3224
2023-05-15T06:08:19.981Z,95.4428
2023-05-15T06:09:20.238Z,95.7652
2023-05-15T06:10:22.512Z,95.8422
2023-05-15T06:11:25.909Z,95.5819
2023-05-15T06:12:25.347Z,95.5357
2023-05-15T06:13:26.953Z,95.7595
2023-05-15T06:14:28.259Z,95.4078
2023-05-15T06:15:28.859Z,95.3311
2023-05-15T06:16:29.389Z,95.7254
2023-05-15T06:17:31.429Z,95.5919
2023-05-15T06:18:31.868Z,95.6262
2023-05-15T06:19:34.073Z,95.7658
2023-05-15T06:21:38.410Z,95.5091
2023-05-15T06:36:59.878Z,94.7528
2023-05-15T06:40:58.856Z,95.1442
2023-05-15T06:41:59.299Z,94.8229
2023-05-15T06:42:59.508Z,94.5950
2023-05-15T06:45:13.289Z,94.7076
2023-05-15T07:09:16.274Z,94.6981
2023-05-15T07:10:17.450Z,94.1234
2023-05-15T07:11:20.376Z,93.5818
2023-05-15T07:15:21.379Z,93.9313
2023-05-15T07:25:30.648Z,92.0481
2023-05-15T07:26:46.605Z,91.7881
2023-05-15T07:28:32.374Z,91.7861
2023-05-15T07:29:34.293Z,92.1131
2023-05-15T07:30:36.070Z,92.8150
2023-05-15T07:32:38.757Z,93.2663
2023-05-15T07:33:40.330Z,92.8318
2023-05-15T07:34:41.090Z,93.2293
2023-05-15T07:35:41.301Z,93.5872
2023-05-15T07:45:51.014Z,94.4672
2023-05-15T07:46:52.148Z,94.2724
2023-05-15T07:47:53.985Z,94.6687
2023-05-15T07:55:00.085Z,95.8236
2023-05-15T08:14:22.757Z,96.3984
2023-05-15T08:15:24.166Z,96.2356
2023-05-15T08:20:28.918Z,95.7255
2023-05-15T08:21:29.703Z,95.3753
2023-05-15T08:22:29.942Z,95.1614
2023-05-15T08:23:31.269Z,94.8826
2023-05-15T08:35:43.935Z,92.1466
2023-05-15T08:36:45.470Z,92.0475
2023-05-15T08:38:46.906Z,91.1212
2023-05-15T08:45:51.015Z,90.9518
2023-05-15T08:46:51.689Z,90.0117
2023-05-15T08:52:56.962Z,90.1017
2023-05-15T08:53:57.514Z,89.8340
2023-05-15T08:54:59.181Z,89.4747
2023-05-15T08:55:59.699Z,90.5295
2023-05-15T08:58:01.138Z,89.7364
2023-05-15T09:00:04.784Z,90.0308
2023-05-15T09:01:04.272Z,89.4760
2023-05-15T09:03:07.601Z,90.2605
2023-05-15T09:04:07.838Z,89.2866
2023-05-15T09:06:10.915Z,87.9144
2023-05-15T09:07:12.795Z,87.0957
2023-05-15T09:08:14.412Z,86.7357
2023-05-15T09:09:16.138Z,87.3589
2023-05-15T09:11:18.744Z,88.0505
2023-05-15T09:27:11.630Z,89.9631
2023-05-15T09:28:12.546Z,92.8475
2023-05-15T09:30:14.816Z,92.6902
2023-05-15T09:31:15.157Z,92.6275
2023-05-15T09:33:18.410Z,93.6140
2023-05-15T09:34:19.081Z,93.7133
2023-05-15T09:35:23.785Z,94.0145
2023-05-15T09:36:22.487Z,94.1199
2023-05-15T09:37:23.635Z,93.7367
2023-05-15T09:39:25.456Z,93.9042
2023-05-15T09:42:27.904Z,93.3097
2023-05-15T09:45:31.811Z,93.3251
2023-05-15T09:49:34.713Z,95.0838
2023-05-15T09:58:40.962Z,92.5603
2023-05-15T10:08:49.972Z,82.7927
2023-05-15T10:09:51.696Z,82.9370
2023-05-15T10:46:39.131Z,83.6439
2023-05-15T10:47:39.495Z,83.9702
2023-05-15T10:48:41.198Z,82.7854
2023-05-15T11:06:25.940Z,87.7008
2023-05-15T11:08:27.307Z,86.4361
2023-05-15T11:28:23.650Z,80.9610
2023-05-15T11:29:24.583Z,80.1504
2023-05-15T11:30:27.722Z,78.4177
2023-05-15T11:31:28.493Z,79.0700
2023-05-15T11:32:29.814Z,78.6047
2023-05-15T11:33:30.760Z,77.9065
2023-05-15T11:34:30.850Z,78.6560
2023-05-15T11:37:06.393Z,78.0591
2023-05-15T11:43:02.742Z,80.2201
2023-05-15T11:50:44.502Z,74.1351
2023-05-15T13:12:24.835Z,73.6397
2023-05-15T13:26:46.875Z,67.0172
2023-05-15T13:28:48.624Z,70.5429
2023-05-15T13:29:49.810Z,69.9136
2023-05-15T13:30:50.415Z,69.1404
2023-05-15T13:42:47.025Z,67.3211
2023-05-15T13:43:47.061Z,66.7812
2023-05-15T13:44:47.762Z,66.5863
2023-05-15T13:45:48.173Z,66.4759
2023-05-15T13:46:50.200Z,65.4931
2023-05-15T13:47:51.153Z,65.6786
2023-05-15T13:48:51.321Z,67.2316
2023-05-15T13:49:53.432Z,67.9538
2023-05-15T13:51:54.475Z,65.9410
2023-05-15T13:52:56.502Z,62.4126
2023-05-15T13:54:00.130Z,63.7560
2023-05-15T14:16:59.528Z,69.3158
2023-05-15T14:18:02.114Z,69.0797
2023-05-15T14:24:06.114Z,73.3127
2023-05-15T14:34:06.661Z,74.1557
2023-05-15T14:36:08.314Z,75.3543
2023-05-15T14:50:24.516Z,77.8197
2023-05-15T14:51:26.642Z,77.5589
2023-05-15T14:52:27.015Z,76.0119
2023-05-15T14:54:29.674Z,81.5636
2023-05-15T14:55:32.345Z,79.8337
2023-05-15T14:56:32.664Z,79.5400
2023-05-15T14:58:35.407Z,76.9188
2023-05-15T14:59:35.841Z,82.5808
2023-05-15T15:01:38.408Z,85.0844
2023-05-15T15:03:40.879Z,83.8254
2023-05-15T15:04:41.294Z,85.4991
2023-05-15T15:22:00.711Z,87.7384
2023-05-15T15:23:03.203Z,86.7390
2023-05-15T15:24:04.946Z,86.2255
2023-05-15T15:25:05.975Z,86.4332
2023-05-15T15:27:06.900Z,85.4349
2023-05-15T15:38:55.494Z,85.4604
2023-05-15T15:39:55.472Z,85.1891
2023-05-15T15:40:55.562Z,85.0987
2023-05-15T15:45:59.795Z,87.4571
2023-05-15T15:48:02.424Z,87.3860
2023-05-15T15:59:28.632Z,89.2441
2023-05-15T16:00:28.439Z,89.1433
2023-05-15T16:13:41.601Z,90.3382
2023-05-15T16:14:42.331Z,90.3052
2023-05-15T16:15:43.992Z,90.5054
2023-05-15T16:16:45.222Z,88.6284
2023-05-15T16:25:35.366Z,86.4028
2023-05-15T16:26:36.688Z,86.4978
2023-05-15T16:27:38.104Z,85.9701
2023-05-15T16:28:37.636Z,85.6576
2023-05-15T16:29:39.354Z,86.1957
2023-05-15T16:30:49.394Z,85.5951
2023-05-15T16:35:17.027Z,83.6893
2023-05-15T16:36:17.677Z,83.6729
2023-05-15T16:37:19.400Z,83.6548
2023-05-15T16:38:21.114Z,83.5575
2023-05-15T16:39:23.374Z,82.7408
2023-05-15T16:57:37.886Z,83.8754
2023-05-15T16:58:39.102Z,83.7062
2023-05-15T16:59:39.591Z,84.4423
2023-05-15T17:00:42.295Z,84.3850
2023-05-15T17:01:43.609Z,84.4748
2023-05-15T17:02:44.714Z,84.5806
2023-05-15T17:04:46.969Z,83.4198
2023-05-15T17:05:48.300Z,83.6555
2023-05-15T17:07:49.466Z,83.8607
2023-05-15T17:08:49.718Z,83.9810
2023-05-15T17:11:56.758Z,83.7841
2023-05-15T17:28:16.008Z,79.6045
2023-05-15T17:39:28.601Z,71.3362
2023-05-15T17:40:30.107Z,73.6040
2023-05-15T17:41:31.960Z,74.8006
2023-05-15T17:42:33.649Z,75.6997
2023-05-15T17:43:34.077Z,77.7094
2023-05-15T17:44:33.946Z,79.7045
2023-05-15T17:45:35.986Z,79.7482
2023-05-15T17:46:37.167Z,80.1973
2023-05-15T17:47:50.166Z,80.3195
2023-05-15T17:49:10.230Z,81.1357
2023-05-15T17:50:10.873Z,81.5029
2023-05-15T17:51:12.294Z,81.8418
2023-05-15T17:52:19.642Z,81.7566
2023-05-15T17:53:14.740Z,81.8324
2023-05-15T17:54:16.574Z,82.1586
2023-05-15T17:55:18.091Z,82.2561
2023-05-15T17:56:18.667Z,83.2818
2023-05-15T17:57:20.101Z,84.3058
2023-05-15T17:58:20.566Z,84.1794
2023-05-15T18:10:31.525Z,87.8067
2023-05-15T18:11:32.099Z,87.5772
2023-05-15T18:12:32.533Z,86.9899
2023-05-15T18:13:33.175Z,87.8012
2023-05-15T18:14:33.655Z,86.9857
2023-05-15T18:15:34.794Z,86.2269
2023-05-15T18:17:37.130Z,87.8499
2023-05-15T18:18:37.334Z,88.0765
2023-05-15T18:19:37.663Z,88.1410
2023-05-15T18:30:21.014Z,90.6729
2023-05-15T18:31:23.796Z,91.1175
2023-05-15T18:32:23.973Z,91.6921
2023-05-15T18:33:24.017Z,92.1651
2023-05-15T18:34:25.572Z,92.6254
2023-05-15T18:35:28.177Z,92.8155
2023-05-15T18:36:28.117Z,93.2027
2023-05-15T18:37:28.744Z,93.6486
2023-05-15T18:38:29.345Z,94.2027
2023-05-15T18:39:30.816Z,94.4966
2023-05-15T18:40:32.312Z,94.6204
2023-05-15T18:41:34.658Z,94.6521
2023-05-15T18:42:35.035Z,94.4106
2023-05-15T18:43:37.186Z,94.4839
2023-05-15T18:44:38.826Z,94.7508
2023-05-15T18:45:39.143Z,94.5437
2023-05-15T18:46:40.613Z,94.4706
2023-05-15T18:47:41.744Z,94.7270
2023-05-15T18:48:42.326Z,94.7811
2023-05-15T18:49:42.502Z,94.6999
2023-05-15T18:50:44.254Z,94.6892
2023-05-15T18:51:45.639Z,94.4064
2023-05-15T18:52:47.348Z,94.0957
2023-05-15T18:53:47.760Z,94.1327
2023-05-15T18:54:49.749Z,93.9342
2023-05-15T18:59:25.060Z,94.7075
2023-05-15T19:00:38.152Z,94.8614
2023-05-15T19:06:01.458Z,95.3944
2023-05-15T19:07:03.424Z,95.1209
2023-05-15T19:09:06.134Z,94.3301
2023-05-15T19:10:08.468Z,93.3772
2023-05-15T19:11:09.042Z,92.9496
2023-05-15T19:12:09.768Z,92.5385
2023-05-15T19:13:09.869Z,92.0828
2023-05-15T19:14:10.999Z,92.3250
2023-05-15T19:15:11.931Z,91.9876
2023-05-15T19:17:14.637Z,91.6079
2023-05-15T19:18:15.598Z,90.8015
2023-05-15T19:19:16.574Z,90.2072
2023-05-15T19:21:17.848Z,88.8997
2023-05-15T19:22:17.728Z,89.0199
2023-05-15T19:36:35.758Z,86.5803
2023-05-15T19:37:35.831Z,86.0348
2023-05-15T19:38:37.595Z,85.9278
2023-05-15T19:39:39.379Z,85.5437
2023-05-15T19:40:41.410Z,84.7988
2023-05-15T19:41:49.114Z,84.0304
2023-05-15T19:49:23.470Z,86.2110
2023-05-15T20:01:37.839Z,94.1260
2023-05-15T20:12:53.025Z,94.5774
2023-05-15T20:13:53.189Z,94.4289
2023-05-15T20:14:55.086Z,94.4036
2023-05-15T20:15:56.699Z,94.5374
2023-05-15T20:16:58.139Z,94.7362
2023-05-15T20:17:58.061Z,94.8277
2023-05-15T20:35:24.005Z,96.6794
2023-05-15T20:36:24.396Z,96.7439
2023-05-15T20:37:25.444Z,96.7924
2023-05-15T20:38:27.313Z,96.8465
2023-05-15T20:39:27.376Z,96.8992
2023-05-15T20:40:29.207Z,97.0030
2023-05-15T20:42:31.996Z,96.8320
2023-05-15T20:43:32.520Z,96.7223
2023-05-15T20:44:33.297Z,96.6563
2023-05-15T20:45:35.842Z,96.6374
2023-05-15T20:46:36.410Z,96.5281
2023-05-15T20:47:37.637Z,96.4907
2023-05-15T20:48:39.895Z,96.6951
2023-05-15T20:49:40.070Z,96.8238
2023-05-15T20:50:40.199Z,97.0139
2023-05-15T20:51:41.468Z,97.1266
2023-05-15T20:52:41.980Z,97.1029
2023-05-15T20:53:42.576Z,97.1398
2023-05-15T20:55:46.317Z,97.3098
2023-05-15T20:58:47.458Z,96.8460
2023-05-15T21:00:49.079Z,96.6122
2023-05-15T21:01:49.175Z,96.4983
2023-05-15T21:06:51.358Z,96.7598
2023-05-15T21:07:52.951Z,96.3481
2023-05-15T21:08:54.139Z,96.1733
2023-05-15T21:09:55.028Z,95.9292
2023-05-15T21:10:57.032Z,95.8676
2023-05-15T21:11:57.136Z,95.6255
2023-05-15T21:12:59.866Z,95.5500
2023-05-15T21:13:59.740Z,95.4246
2023-05-15T21:18:05.011Z,95.2902
2023-05-15T21:19:06.435Z,95.4265
2023-05-15T21:20:09.012Z,95.5439
2023-05-15T21:21:09.189Z,95.6661
2023-05-15T21:22:10.892Z,95.7049
2023-05-15T21:24:12.359Z,95.6645
2023-05-15T21:25:13.804Z,95.7944
2023-05-15T21:40:31.756Z,97.0054
2023-05-15T21:41:33.201Z,96.9860
2023-05-15T21:42:35.742Z,96.8448
2023-05-15T21:43:36.523Z,96.8168
2023-05-15T21:44:36.716Z,96.7936
2023-05-15T21:45:37.900Z,96.8406
2023-05-15T21:46:37.986Z,96.8429
2023-05-15T21:47:38.616Z,96.8882
2023-05-15T21:50:42.449Z,96.9683
2023-05-15T21:51:44.470Z,96.9787
2023-05-15T21:53:47.807Z,97.1512
2023-05-15T21:54:48.120Z,97.1242
2023-05-15T21:55:49.365Z,97.0000
2023-05-15T21:57:52.350Z,97.0649
2023-05-15T21:58:52.589Z,97.0355
2023-05-15T22:00:55.351Z,97.1210
2023-05-15T22:01:56.696Z,97.2528
2023-05-15T22:02:57.730Z,97.3926
2023-05-15T22:04:00.200Z,97.4117
2023-05-15T22:05:01.437Z,97.4773
2023-05-15T22:06:02.781Z,97.4435
2023-05-15T22:07:03.955Z,97.4419
2023-05-15T22:08:06.032Z,97.4476
2023-05-15T22:09:07.394Z,97.4858
2023-05-15T22:10:09.139Z,97.4890
2023-05-15T22:13:14.590Z,97.5851
2023-05-15T22:14:15.202Z,97.6440
2023-05-15T22:15:17.689Z,97.5551
2023-05-15T22:16:20.108Z,97.4651
2023-05-15T22:19:32.994Z,97.2540
2023-05-15T22:23:25.804Z,95.9464
2023-05-15T22:24:26.893Z,95.5215
2023-05-15T22:34:03.107Z,95.3050
2023-05-15T22:46:15.505Z,96.8239
2023-05-15T22:47:15.855Z,96.8593
2023-05-15T22:49:18.295Z,96.8454
2023-05-15T22:50:20.525Z,96.8536
2023-05-15T22:51:20.565Z,96.9750
2023-05-15T22:52:21.672Z,97.1336
2023-05-15T22:53:24.164Z,97.2383
2023-05-15T22:54:24.856Z,97.3096
2023-05-15T22:55:25.367Z,97.4243
2023-05-15T23:12:42.546Z,97.9870
2023-05-15T23:13:44.782Z,97.9609
2023-05-15T23:14:46.261Z,98.0093
2023-05-15T23:16:48.905Z,98.0724
2023-05-15T23:17:50.505Z,98.0517
2023-05-15T23:18:51.416Z,98.0741
2023-05-15T23:20:54.297Z,98.1931
2023-05-15T23:30:05.382Z,98.2050
2023-05-15T23:31:06.201Z,98.2060
2023-05-15T23:34:09.882Z,98.0497
2023-05-15T23:35:11.420Z,97.9555
2023-05-15T23:36:13.784Z,97.7692
2023-05-15T23:54:35.337Z,97.0891
2023-05-15T23:55:37.423Z,97.1591
2023-05-15T23:56:38.822Z,97.3011
2023-05-15T23:57:40.285Z,97.3449
2023-05-15T23:59:45.575Z,97.6430
